Time;durP1;ratioP1;P1;durP2;ratioP2;P2;SDS_P1;SDS_P2;PMS_P1;PMS_P2;Temp;Humidity;BMP_temperature;BMP_pressure;BME280_temperature;BME280_humidity;BME280_pressure;Samples;Min_cycle;Max_cycle;Signal;HPM_P1;HPM_P2
2021/11/21 00:01:04;;;;;;;33.47;19.13;;;7.30;1.00;;;;;;5014964;28;20234;-63
2021/11/21 00:03:31;;;;;;;33.00;19.23;;;7.20;1.00;;;;;;5014590;28;20204;-63
2021/11/21 00:05:58;;;;;;;34.83;19.67;;;7.20;1.00;;;;;;5014675;28;20234;-63
2021/11/21 00:08:26;;;;;;;39.23;21.50;;;7.20;1.00;;;;;;5014920;28;20617;-63
2021/11/21 00:10:53;;;;;;;36.33;20.73;;;7.20;2.40;;;;;;5014719;28;20236;-63
2021/11/21 00:13:20;;;;;;;35.13;21.07;;;7.20;19.00;;;;;;5014808;28;20204;-63
2021/11/21 00:15:47;;;;;;;41.90;23.03;;;7.10;99.90;;;;;;5014046;28;20242;-63
2021/11/21 00:18:13;;;;;;;38.40;21.57;;;7.10;99.90;;;;;;5014557;28;20204;-63
2021/11/21 00:20:41;;;;;;;38.43;21.83;;;7.10;99.90;;;;;;5014678;28;20208;-63
2021/11/21 00:23:08;;;;;;;41.23;22.37;;;7.20;99.90;;;;;;5014688;28;20215;-63
2021/11/21 00:25:36;;;;;;;39.93;22.20;;;7.10;99.90;;;;;;5014060;28;20235;-63
2021/11/21 00:28:04;;;;;;;40.67;21.10;;;7.20;99.90;;;;;;5014427;28;20218;-63
2021/11/21 00:30:30;;;;;;;39.47;22.10;;;7.20;99.90;;;;;;5014358;28;20230;-63
2021/11/21 00:32:57;;;;;;;40.13;21.57;;;7.30;99.90;;;;;;5014258;28;20673;-63
2021/11/21 00:35:24;;;;;;;38.17;21.60;;;7.30;99.90;;;;;;5014159;28;20242;-63
2021/11/21 00:37:51;;;;;;;42.23;22.43;;;7.30;99.90;;;;;;5014138;28;20698;-63
2021/11/21 00:40:18;;;;;;;36.47;20.57;;;7.40;99.90;;;;;;5014603;28;20203;-63
2021/11/21 00:42:46;;;;;;;41.03;20.60;;;7.40;99.90;;;;;;5014508;28;20219;-63
2021/11/21 00:45:13;;;;;;;36.07;21.33;;;7.40;99.90;;;;;;5013951;28;20237;-63
2021/11/21 00:47:41;;;;;;;34.63;20.03;;;7.40;99.90;;;;;;5014492;28;20614;-62
2021/11/21 00:50:10;;;;;;;40.27;21.23;;;7.40;99.90;;;;;;5013985;28;20215;-62
2021/11/21 00:52:38;;;;;;;43.33;21.80;;;7.30;99.90;;;;;;5013997;28;20681;-62
2021/11/21 00:55:10;;;;;;;40.67;20.93;;;7.20;99.90;;;;;;5013604;28;20258;-62
2021/11/21 00:57:37;;;;;;;41.20;21.40;;;7.10;99.90;;;;;;5014022;28;20222;-62
2021/11/21 01:00:10;;;;;;;42.70;22.93;;;7.10;99.90;;;;;;5014118;28;20207;-62
2021/11/21 01:02:37;;;;;;;47.07;24.80;;;7.10;99.90;;;;;;5013784;28;20676;-62
2021/11/21 01:05:06;;;;;;;47.90;24.10;;;6.90;99.90;;;;;;5013432;28;20255;-62
2021/11/21 01:07:33;;;;;;;45.10;23.20;;;7.00;99.90;;;;;;5013921;28;20217;-62
2021/11/21 01:10:00;;;;;;;45.97;24.20;;;6.90;99.90;;;;;;5013615;28;20589;-62
2021/11/21 01:12:27;;;;;;;47.00;23.03;;;6.90;1.00;;;;;;5013719;28;20231;-62
2021/11/21 01:14:53;;;;;;;47.67;23.83;;;7.00;1.00;;;;;;5013172;28;20273;-63
2021/11/21 01:17:21;;;;;;;48.57;23.43;;;6.90;1.00;;;;;;5013616;28;20210;-62
2021/11/21 01:19:48;;;;;;;52.63;24.23;;;6.90;1.00;;;;;;5012889;28;20665;-63
2021/11/21 01:22:15;;;;;;;50.97;23.70;;;6.90;1.00;;;;;;5013585;28;20203;-62
2021/11/21 01:24:41;;;;;;;49.33;23.03;;;7.00;1.00;;;;;;5012708;28;20816;-63
2021/11/21 01:27:09;;;;;;;46.17;20.67;;;7.00;1.00;;;;;;5013583;28;20212;-62
2021/11/21 01:29:35;;;;;;;45.53;22.57;;;7.00;1.00;;;;;;5013400;28;20212;-63
2021/11/21 01:32:03;;;;;;;47.57;22.83;;;7.00;1.00;;;;;;5013346;28;20232;-62
2021/11/21 01:34:31;;;;;;;44.40;22.43;;;7.00;1.00;;;;;;5013312;28;20839;-62
2021/11/21 01:36:58;;;;;;;46.93;21.93;;;6.90;1.00;;;;;;5013308;28;20204;-62
2021/11/21 01:39:24;;;;;;;45.03;22.37;;;7.00;1.00;;;;;;5012887;28;20213;-62
2021/11/21 01:41:51;;;;;;;47.77;22.97;;;7.00;1.00;;;;;;5013344;28;20218;-62
2021/11/21 01:44:18;;;;;;;50.53;23.23;;;7.00;1.00;;;;;;5013166;28;20760;-62
2021/11/21 01:46:45;;;;;;;45.07;21.50;;;7.00;1.00;;;;;;5012803;28;20211;-62
2021/11/21 01:49:12;;;;;;;49.57;23.40;;;7.00;1.00;;;;;;5012947;28;20206;-62
2021/11/21 01:51:40;;;;;;;46.83;22.67;;;7.10;1.00;;;;;;5012728;28;20318;-62
2021/11/21 01:54:08;;;;;;;49.10;23.53;;;7.10;1.00;;;;;;5012767;28;20757;-62
2021/11/21 01:56:35;;;;;;;47.17;24.37;;;7.10;1.00;;;;;;5012466;28;20705;-62
2021/11/21 01:59:03;;;;;;;48.20;22.73;;;7.00;1.00;;;;;;5013012;28;20588;-62
2021/11/21 02:01:30;;;;;;;48.20;22.07;;;7.10;1.00;;;;;;5012840;28;20585;-62
2021/11/21 02:03:56;;;;;;;51.40;22.90;;;7.10;1.00;;;;;;5012541;28;20585;-62
2021/11/21 02:06:23;;;;;;;49.97;23.70;;;7.10;1.00;;;;;;5012370;28;20209;-62
2021/11/21 02:08:53;;;;;;;52.90;23.93;;;7.10;1.00;;;;;;5012752;28;20214;-63
2021/11/21 02:11:20;;;;;;;47.03;22.83;;;7.00;1.00;;;;;;5012508;28;20227;-62
2021/11/21 02:13:49;;;;;;;46.77;23.33;;;7.00;1.00;;;;;;5012407;28;20364;-62
2021/11/21 02:16:16;;;;;;;51.80;23.97;;;7.00;1.00;;;;;;5012435;28;20289;-62
2021/11/21 02:18:45;;;;;;;44.57;22.30;;;7.00;1.00;;;;;;5012362;28;20214;-62
2021/11/21 02:21:13;;;;;;;48.00;21.17;;;7.00;1.00;;;;;;5012659;28;20203;-62
2021/11/21 02:23:41;;;;;;;47.07;22.13;;;7.00;1.00;;;;;;5012444;28;20233;-62
2021/11/21 02:26:08;;;;;;;45.80;21.70;;;7.00;1.00;;;;;;5012102;28;20248;-62
2021/11/21 02:28:38;;;;;;;47.50;20.33;;;7.00;1.00;;;;;;5012452;28;20211;-62
2021/11/21 02:31:05;;;;;;;48.10;21.70;;;7.00;1.00;;;;;;5011394;28;20239;-62
2021/11/21 02:33:32;;;;;;;45.43;21.87;;;6.90;1.00;;;;;;5012181;28;20211;-62
2021/11/21 02:36:01;;;;;;;38.43;17.77;;;6.90;1.00;;;;;;5011783;28;20238;-62
2021/11/21 02:38:31;;;;;;;45.10;20.60;;;6.90;1.00;;;;;;5011940;28;20207;-62
2021/11/21 02:41:00;;;;;;;45.47;20.30;;;6.90;1.00;;;;;;5012208;28;20216;-62
2021/11/21 02:43:27;;;;;;;44.60;20.77;;;6.90;1.00;;;;;;5012180;28;20218;-62
2021/11/21 02:45:56;;;;;;;39.83;18.60;;;7.00;1.00;;;;;;5011532;28;20227;-62
2021/11/21 02:48:26;;;;;;;40.93;19.70;;;7.00;1.00;;;;;;5011991;28;20692;-63
2021/11/21 02:50:54;;;;;;;44.33;20.00;;;6.90;1.00;;;;;;5012211;28;20230;-62
2021/11/21 02:53:22;;;;;;;40.53;19.07;;;6.90;1.00;;;;;;5012081;28;20261;-62
2021/11/21 02:55:53;;;;;;;45.60;20.37;;;6.90;1.00;;;;;;5011781;28;20222;-63
2021/11/21 02:58:20;;;;;;;44.67;20.40;;;6.90;1.00;;;;;;5012248;28;20666;-63
2021/11/21 03:00:47;;;;;;;44.93;19.87;;;6.90;1.00;;;;;;5012330;28;20291;-62
2021/11/21 03:03:15;;;;;;;48.73;20.53;;;6.90;1.00;;;;;;5012168;28;20212;-62
2021/11/21 03:05:42;;;;;;;49.40;21.93;;;6.90;1.00;;;;;;5011674;28;20231;-62
2021/11/21 03:08:09;;;;;;;47.43;21.13;;;6.90;1.00;;;;;;5012148;28;20203;-62
2021/11/21 03:10:36;;;;;;;44.87;21.40;;;6.90;1.00;;;;;;5011966;28;20214;-62
2021/11/21 03:13:06;;;;;;;49.07;21.40;;;6.90;1.00;;;;;;5011835;28;20237;-62
2021/11/21 03:15:34;;;;;;;47.43;21.53;;;6.90;1.00;;;;;;5011249;28;20240;-62
2021/11/21 03:18:01;;;;;;;51.00;21.37;;;6.90;1.00;;;;;;5011774;28;20211;-62
2021/11/21 03:20:31;;;;;;;49.37;21.73;;;6.80;1.00;;;;;;5011923;28;20218;-62
2021/11/21 03:22:59;;;;;;;47.37;21.20;;;6.80;1.00;;;;;;5011717;28;20206;-62
2021/11/21 03:25:26;;;;;;;47.83;20.43;;;6.90;1.00;;;;;;5011300;28;20230;-63
2021/11/21 03:27:53;;;;;;;47.53;19.60;;;6.90;1.00;;;;;;5011589;28;20218;-62
2021/11/21 03:30:23;;;;;;;48.93;21.13;;;6.90;1.00;;;;;;5012015;28;20207;-62
2021/11/21 03:32:51;;;;;;;56.00;22.87;;;6.90;1.00;;;;;;5011839;28;20639;-63
2021/11/21 03:35:18;;;;;;;57.87;24.03;;;7.00;1.00;;;;;;5011300;28;20243;-63
2021/11/21 03:37:45;;;;;;;53.33;23.27;;;7.00;1.00;;;;;;5011658;28;20219;-62
2021/11/21 03:40:15;;;;;;;57.03;24.00;;;6.90;1.00;;;;;;5011443;28;20245;-63
2021/11/21 03:42:42;;;;;;;55.27;23.10;;;6.90;1.00;;;;;;5013279;28;20218;-63
2021/11/21 03:45:11;;;;;;;57.87;24.50;;;7.00;1.00;;;;;;5015053;28;20232;-62
2021/11/21 03:47:39;;;;;;;53.03;20.70;;;6.90;1.00;;;;;;5015273;28;20207;-62
2021/11/21 03:50:10;;;;;;;57.00;23.07;;;6.90;1.00;;;;;;5015102;28;20211;-62
2021/11/21 03:52:37;;;;;;;54.07;23.13;;;6.90;1.00;;;;;;5014988;28;20321;-62
2021/11/21 03:55:04;;;;;;;53.73;22.00;;;6.90;1.00;;;;;;5014646;28;20232;-62
2021/11/21 03:57:31;;;;;;;57.30;21.57;;;7.00;1.00;;;;;;5015316;28;20211;-62
2021/11/21 03:59:58;;;;;;;50.77;22.33;;;7.00;1.00;;;;;;5015358;28;20215;-62
2021/11/21 04:02:24;;;;;;;51.93;19.67;;;7.00;1.00;;;;;;5015144;28;20212;-62
2021/11/21 04:04:52;;;;;;;49.00;21.60;;;7.00;1.00;;;;;;5015213;28;20232;-63
2021/11/21 04:07:19;;;;;;;49.07;20.47;;;7.00;1.00;;;;;;5014811;28;20214;-62
2021/11/21 04:09:46;;;;;;;51.03;19.73;;;7.00;1.00;;;;;;5014820;28;20697;-62
2021/11/21 04:12:13;;;;;;;47.83;20.23;;;6.90;1.00;;;;;;5014933;28;20226;-63
2021/11/21 04:14:39;;;;;;;48.70;20.33;;;7.00;1.00;;;;;;5014688;28;20606;-63
2021/11/21 04:17:06;;;;;;;48.63;20.77;;;7.00;1.00;;;;;;5015028;28;20704;-63
2021/11/21 04:19:32;;;;;;;46.07;18.87;;;6.90;1.00;;;;;;5014752;28;20203;-63
2021/11/21 04:22:00;;;;;;;50.97;20.80;;;7.00;1.00;;;;;;5014940;28;20203;-63
2021/11/21 04:24:27;;;;;;;50.63;19.70;;;7.00;1.00;;;;;;5014429;28;20229;-63
2021/11/21 04:26:54;;;;;;;38.07;17.03;;;7.00;1.00;;;;;;5014357;28;20629;-63
2021/11/21 04:29:20;;;;;;;40.60;19.07;;;7.00;1.00;;;;;;5014560;28;20636;-63
2021/11/21 04:31:48;;;;;;;43.70;18.13;;;7.00;1.00;;;;;;5014421;28;20227;-63
2021/11/21 04:34:15;;;;;;;44.50;18.17;;;7.00;1.00;;;;;;5014119;28;20230;-63
2021/11/21 04:36:42;;;;;;;38.07;16.83;;;7.00;1.00;;;;;;5014650;28;20211;-63
2021/11/21 04:39:10;;;;;;;41.30;18.13;;;7.00;1.00;;;;;;5014443;28;20211;-63
2021/11/21 04:41:36;;;;;;;44.00;18.43;;;6.90;1.00;;;;;;5014315;28;20212;-63
2021/11/21 04:44:03;;;;;;;40.93;17.97;;;6.90;1.00;;;;;;5014243;28;20232;-63
2021/11/21 04:46:31;;;;;;;41.87;18.93;;;7.00;4.70;;;;;;5013969;28;20210;-63
2021/11/21 04:48:57;;;;;;;45.10;19.30;;;7.00;5.30;;;;;;5014034;28;20214;-63
2021/11/21 04:51:24;;;;;;;44.43;17.53;;;7.00;7.90;;;;;;5014197;28;20207;-63
2021/11/21 04:53:51;;;;;;;49.63;20.07;;;7.00;10.60;;;;;;5013328;28;20274;-63
2021/11/21 04:56:19;;;;;;;47.40;18.57;;;7.00;16.10;;;;;;5013758;28;20212;-63
2021/11/21 04:58:45;;;;;;;50.13;20.43;;;7.00;14.30;;;;;;5013897;28;20214;-63
2021/11/21 05:01:12;;;;;;;48.60;21.20;;;7.00;13.00;;;;;;5013810;28;20203;-63
2021/11/21 05:03:39;;;;;;;55.33;21.53;;;7.00;14.80;;;;;;5013936;28;20215;-63
2021/11/21 05:06:05;;;;;;;54.70;20.67;;;6.90;14.00;;;;;;5013660;28;20222;-63
2021/11/21 05:08:32;;;;;;;57.37;20.37;;;6.90;16.30;;;;;;5013804;28;20214;-63
2021/11/21 05:10:58;;;;;;;56.67;22.40;;;6.90;25.50;;;;;;5013716;28;20207;-63
2021/11/21 05:13:27;;;;;;;52.70;21.20;;;6.90;32.70;;;;;;5013658;28;20261;-63
2021/11/21 05:15:53;;;;;;;55.23;22.03;;;6.90;41.20;;;;;;5012900;28;20321;-63
2021/11/21 05:18:20;;;;;;;56.80;23.00;;;6.90;47.80;;;;;;5013787;28;20207;-64
2021/11/21 05:20:47;;;;;;;58.90;23.17;;;6.90;51.90;;;;;;5013641;28;20204;-63
2021/11/21 05:23:14;;;;;;;55.43;20.93;;;6.90;63.00;;;;;;5013698;28;20576;-64
2021/11/21 05:25:40;;;;;;;59.03;21.57;;;6.90;70.20;;;;;;5013210;28;20234;-63
2021/11/21 05:28:07;;;;;;;53.67;21.70;;;7.00;78.50;;;;;;5013463;28;20218;-63
2021/11/21 05:30:35;;;;;;;56.10;21.13;;;7.00;83.40;;;;;;5013338;28;20633;-63
2021/11/21 05:33:02;;;;;;;57.43;22.63;;;7.00;85.80;;;;;;5013884;28;20736;-63
2021/11/21 05:35:28;;;;;;;50.63;20.57;;;7.10;87.00;;;;;;5013146;28;20232;-63
2021/11/21 05:37:55;;;;;;;57.87;22.23;;;7.00;84.00;;;;;;5013500;28;20211;-63
2021/11/21 05:40:22;;;;;;;51.00;20.40;;;7.00;89.20;;;;;;5013558;28;20211;-63
2021/11/21 05:42:49;;;;;;;57.47;21.60;;;7.00;91.10;;;;;;5013331;28;20704;-63
2021/11/21 05:45:16;;;;;;;59.03;21.57;;;7.00;90.70;;;;;;5012547;28;20323;-63
2021/11/21 05:47:44;;;;;;;56.10;22.27;;;7.00;92.30;;;;;;5013440;28;20214;-63
2021/11/21 05:50:14;;;;;;;52.37;22.10;;;7.00;93.90;;;;;;5013063;28;20211;-62
2021/11/21 05:52:42;;;;;;;50.87;21.13;;;7.10;90.60;;;;;;5013150;28;20215;-62
2021/11/21 05:55:09;;;;;;;51.37;20.90;;;7.00;90.60;;;;;;5012515;28;20744;-62
2021/11/21 05:57:36;;;;;;;56.03;21.50;;;7.00;86.10;;;;;;5013140;28;20214;-63
2021/11/21 06:00:06;;;;;;;47.40;19.67;;;7.00;89.10;;;;;;5012706;28;20694;-64
2021/11/21 06:02:33;;;;;;;55.67;20.60;;;7.00;90.00;;;;;;5012726;28;20696;-63
2021/11/21 06:05:01;;;;;;;51.67;21.07;;;7.00;90.20;;;;;;5012209;28;20313;-62
2021/11/21 06:07:28;;;;;;;56.60;22.00;;;6.90;92.10;;;;;;5012651;28;20694;-61
2021/11/21 06:09:54;;;;;;;58.30;21.93;;;6.90;94.90;;;;;;5012705;28;20621;-61
2021/11/21 06:12:21;;;;;;;50.10;20.83;;;6.90;96.20;;;;;;5012392;28;20583;-61
2021/11/21 06:14:48;;;;;;;50.87;20.60;;;7.00;97.50;;;;;;5012247;28;20246;-61
2021/11/21 06:17:14;;;;;;;53.73;21.87;;;7.00;98.70;;;;;;5012708;28;20211;-61
2021/11/21 06:19:43;;;;;;;64.30;21.63;;;6.90;99.40;;;;;;5012622;28;20203;-61
2021/11/21 06:22:11;;;;;;;60.77;22.37;;;6.90;99.90;;;;;;5012925;28;20203;-61
2021/11/21 06:24:38;;;;;;;61.10;22.63;;;6.90;99.90;;;;;;5012629;28;20230;-60
2021/11/21 06:27:06;;;;;;;64.53;23.83;;;6.90;99.90;;;;;;5013222;28;20215;-61
2021/11/21 06:29:33;;;;;;;60.83;23.17;;;6.80;99.90;;;;;;5013082;28;20207;-61
2021/11/21 06:31:59;;;;;;;57.13;21.80;;;6.90;99.90;;;;;;5012963;28;20210;-61
2021/11/21 06:34:26;;;;;;;64.77;22.47;;;6.90;99.90;;;;;;5012538;28;20231;-61
2021/11/21 06:36:53;;;;;;;65.10;23.20;;;6.90;99.90;;;;;;5012212;28;20214;-61
2021/11/21 06:39:21;;;;;;;63.60;21.80;;;6.90;99.90;;;;;;5012143;28;20211;-61
2021/11/21 06:41:48;;;;;;;62.07;22.87;;;6.90;99.90;;;;;;5012531;28;20211;-61
2021/11/21 06:44:14;;;;;;;63.10;23.67;;;7.00;99.90;;;;;;5012829;28;20227;-61
2021/11/21 06:46:41;;;;;;;59.10;22.43;;;7.00;99.90;;;;;;5012007;28;20215;-62
2021/11/21 06:49:08;;;;;;;62.50;22.33;;;6.90;99.90;;;;;;5012164;28;20302;-61
2021/11/21 06:51:37;;;;;;;68.67;23.50;;;7.00;99.90;;;;;;5012196;28;20214;-61
2021/11/21 06:54:03;;;;;;;63.13;22.60;;;6.90;99.90;;;;;;5011945;28;20765;-61
2021/11/21 06:56:31;;;;;;;70.03;24.03;;;6.90;99.90;;;;;;5011848;28;20673;-61
2021/11/21 06:58:58;;;;;;;68.00;23.37;;;6.90;99.90;;;;;;5012210;28;20690;-61
2021/11/21 07:01:24;;;;;;;61.60;23.20;;;6.90;99.90;;;;;;5012163;28;20210;-62
2021/11/21 07:03:51;;;;;;;68.20;23.87;;;7.00;99.90;;;;;;5011968;28;20207;-60
2021/11/21 07:06:32;;;;;;;63.43;22.70;;;7.00;99.90;;;;;;5011693;28;20211;-61
2021/11/21 07:08:59;;;;;;;55.47;20.93;;;7.00;99.90;;;;;;5012134;28;20230;-61
2021/11/21 07:11:26;;;;;;;65.70;21.57;;;7.00;99.90;;;;;;5012403;28;20203;-62
2021/11/21 07:13:54;;;;;;;64.67;22.53;;;7.00;99.90;;;;;;5012208;28;20223;-62
2021/11/21 07:16:21;;;;;;;64.30;21.37;;;7.00;99.90;;;;;;5012725;28;20330;-62
2021/11/21 07:18:47;;;;;;;47.17;18.43;;;7.10;99.90;;;;;;5015357;28;20214;-62
2021/11/21 07:21:14;;;;;;;43.50;16.73;;;7.10;99.90;;;;;;5016289;28;20208;-61
2021/11/21 07:23:41;;;;;;;44.83;16.83;;;7.10;99.90;;;;;;5016017;28;20237;-61
2021/11/21 07:26:08;;;;;;;57.30;19.97;;;7.10;99.90;;;;;;5015981;28;20756;-62
2021/11/21 07:28:35;;;;;;;48.00;18.07;;;7.10;99.90;;;;;;5016089;28;20212;-62
2021/11/21 07:31:04;;;;;;;47.43;17.17;;;7.10;99.90;;;;;;5015667;28;20214;-60
2021/11/21 07:33:31;;;;;;;42.30;15.13;;;7.10;99.90;;;;;;5015413;28;20223;-59
2021/11/21 07:35:58;;;;;;;38.83;15.13;;;7.10;99.90;;;;;;5015433;28;20238;-61
2021/11/21 07:38:24;;;;;;;33.17;13.90;;;7.20;99.90;;;;;;5015178;28;20682;-61
2021/11/21 07:40:52;;;;;;;37.40;15.13;;;7.10;99.90;;;;;;5015676;28;20206;-61
2021/11/21 07:43:19;;;;;;;34.67;14.43;;;7.20;99.90;;;;;;5015331;28;20235;-61
2021/11/21 07:45:45;;;;;;;29.73;12.60;;;7.20;99.90;;;;;;5015054;28;20242;-61
2021/11/21 07:48:13;;;;;;;26.40;12.30;;;7.20;99.90;;;;;;5015311;28;20203;-61
2021/11/21 07:50:40;;;;;;;28.93;12.93;;;7.20;99.90;;;;;;5015413;28;20212;-61
2021/11/21 07:53:08;;;;;;;30.03;12.67;;;7.10;99.90;;;;;;5015192;28;20640;-61
2021/11/21 07:55:35;;;;;;;27.20;12.27;;;7.10;99.90;;;;;;5014834;28;20237;-61
2021/11/21 07:58:02;;;;;;;32.80;12.60;;;7.10;99.90;;;;;;5015186;28;20212;-60
2021/11/21 08:00:29;;;;;;;25.53;11.53;;;7.20;99.90;;;;;;5015003;28;20222;-59
2021/11/21 08:02:57;;;;;;;26.33;11.90;;;7.10;99.90;;;;;;5015048;28;20203;-60
2021/11/21 08:05:26;;;;;;;26.67;11.73;;;7.10;99.90;;;;;;5014654;28;20250;-59
2021/11/21 08:07:53;;;;;;;25.27;11.27;;;7.10;99.90;;;;;;5014975;28;20211;-59
2021/11/21 08:10:20;;;;;;;24.03;11.27;;;7.20;99.90;;;;;;5014860;28;20597;-60
2021/11/21 08:12:47;;;;;;;25.27;10.80;;;7.20;99.90;;;;;;5014794;28;20234;-59
2021/11/21 08:15:14;;;;;;;22.57;10.57;;;7.20;99.90;;;;;;5014018;28;20239;-60
2021/11/21 08:17:41;;;;;;;22.10;10.37;;;7.20;99.90;;;;;;5014637;28;20669;-60
2021/11/21 08:20:09;;;;;;;22.20;10.40;;;7.20;99.90;;;;;;5014944;28;20594;-60
2021/11/21 08:22:37;;;;;;;22.33;11.13;;;7.20;99.90;;;;;;5014746;28;20203;-60
2021/11/21 08:25:05;;;;;;;20.80;10.47;;;7.30;99.90;;;;;;5014284;28;20231;-61
2021/11/21 08:27:32;;;;;;;23.63;11.07;;;7.30;99.90;;;;;;5014550;28;20208;-61
2021/11/21 08:29:59;;;;;;;21.37;11.10;;;7.40;99.90;;;;;;5013641;28;20238;-61
2021/11/21 08:32:25;;;;;;;26.90;11.57;;;7.30;99.90;;;;;;5014654;28;20207;-60
2021/11/21 08:34:52;;;;;;;24.07;11.43;;;7.30;99.90;;;;;;5014228;28;20233;-60
2021/11/21 08:37:19;;;;;;;22.50;12.10;;;7.40;99.90;;;;;;5014451;28;20208;-60
2021/11/21 08:39:47;;;;;;;24.03;12.50;;;7.40;99.90;;;;;;5014231;28;20225;-59
2021/11/21 08:42:14;;;;;;;24.47;12.90;;;7.40;99.90;;;;;;5014189;28;20216;-60
2021/11/21 08:44:40;;;;;;;26.83;13.93;;;7.50;99.90;;;;;;5013938;28;20225;-61
2021/11/21 08:47:10;;;;;;;25.47;12.47;;;7.50;99.90;;;;;;5014376;28;20629;-60
2021/11/21 08:49:37;;;;;;;30.60;14.00;;;7.50;99.90;;;;;;5014407;28;20209;-61
2021/11/21 08:52:04;;;;;;;30.77;14.67;;;7.50;99.90;;;;;;5014289;28;20208;-60
2021/11/21 08:54:31;;;;;;;28.87;14.57;;;7.60;99.90;;;;;;5013938;28;20231;-58
2021/11/21 08:56:59;;;;;;;27.37;14.33;;;7.70;99.90;;;;;;5014004;28;20203;-61
2021/11/21 08:59:25;;;;;;;32.07;16.03;;;7.70;99.90;;;;;;5014431;28;20592;-60
2021/11/21 09:01:52;;;;;;;32.23;16.00;;;7.80;99.90;;;;;;5014202;28;20213;-60
2021/11/21 09:04:19;;;;;;;29.13;14.73;;;7.80;99.90;;;;;;5013899;28;20223;-60
2021/11/21 09:06:47;;;;;;;33.73;17.30;;;7.90;99.90;;;;;;5013437;28;20703;-61
2021/11/21 09:09:14;;;;;;;32.73;16.77;;;8.00;97.30;;;;;;5013518;28;20244;-61
2021/11/21 09:11:42;;;;;;;30.10;16.37;;;8.10;93.00;;;;;;5013972;28;20555;-61
2021/11/21 09:14:11;;;;;;;32.33;16.33;;;8.10;65.80;;;;;;5013538;28;20242;-60
2021/11/21 09:16:38;;;;;;;30.30;17.17;;;8.20;78.40;;;;;;5013342;28;20210;-61
2021/11/21 09:19:05;;;;;;;31.37;16.90;;;8.20;60.20;;;;;;5013568;28;20205;-61
2021/11/21 09:21:32;;;;;;;30.10;17.60;;;8.30;48.70;;;;;;5013643;28;20220;-60
2021/11/21 09:23:58;;;;;;;32.57;17.90;;;8.30;29.60;;;;;;5013117;28;20210;-60
2021/11/21 09:26:26;;;;;;;29.63;16.73;;;8.30;19.20;;;;;;5013443;28;20210;-59
2021/11/21 09:28:53;;;;;;;30.53;17.30;;;8.40;4.50;;;;;;5013570;28;20234;-59
2021/11/21 09:31:21;;;;;;;33.30;17.20;;;8.40;1.00;;;;;;5013448;28;20209;-60
2021/11/21 09:33:48;;;;;;;29.87;17.33;;;8.40;1.00;;;;;;5013315;28;20234;-60
2021/11/21 09:36:15;;;;;;;28.87;17.57;;;8.40;1.00;;;;;;5012850;28;20696;-61
2021/11/21 09:38:41;;;;;;;29.10;16.80;;;8.40;1.00;;;;;;5012176;28;20217;-61
2021/11/21 09:41:08;;;;;;;31.50;18.40;;;8.50;1.00;;;;;;5011761;28;20213;-61
2021/11/21 09:43:35;;;;;;;32.00;16.67;;;8.50;1.00;;;;;;5013332;28;20206;-61
2021/11/21 09:46:02;;;;;;;32.97;18.03;;;8.40;1.00;;;;;;5012811;28;20241;-55
2021/11/21 09:48:32;;;;;;;32.93;17.57;;;8.40;1.00;;;;;;5013202;28;20213;-60
2021/11/21 09:50:59;;;;;;;29.80;17.40;;;8.50;1.00;;;;;;5012973;28;20210;-57
2021/11/21 09:53:26;;;;;;;32.07;17.60;;;8.50;1.00;;;;;;5012675;28;20230;-58
2021/11/21 09:55:52;;;;;;;32.40;18.50;;;8.60;1.00;;;;;;5012298;28;20234;-57
2021/11/21 09:58:19;;;;;;;30.17;17.57;;;8.60;1.00;;;;;;5004418;28;20206;-59
2021/11/21 10:00:46;;;;;;;32.60;18.43;;;8.60;1.00;;;;;;5012174;28;20216;-54
2021/11/21 10:03:14;;;;;;;33.30;18.53;;;8.60;1.00;;;;;;5012230;28;20210;-55
2021/11/21 10:05:46;;;;;;;32.37;18.17;;;8.70;1.00;;;;;;5011661;28;20233;-57
2021/11/21 10:08:14;;;;;;;31.33;18.00;;;8.70;1.00;;;;;;5012210;28;20214;-59
2021/11/21 10:10:44;;;;;;;32.10;17.73;;;8.70;99.90;;;;;;5012168;28;20689;-58
2021/11/21 10:13:30;;;;;;;33.03;17.67;;;8.70;99.90;;;;;;5012183;28;20214;-62
2021/11/21 10:15:57;;;;;;;30.60;17.07;;;8.70;99.90;;;;;;5011535;28;20237;-60
2021/11/21 10:18:24;;;;;;;39.23;19.63;;;9.00;1.00;;;;;;5012089;28;20207;-62
2021/11/21 10:20:53;;;;;;;32.47;19.90;;;9.20;1.00;;;;;;5011963;28;20207;-62
2021/11/21 10:23:21;;;;;;;31.60;18.40;;;9.30;1.00;;;;;;5012210;28;20210;-62
2021/11/21 10:25:51;;;;;;;33.77;17.60;;;9.40;99.90;;;;;;5011684;28;20229;-56
2021/11/21 10:28:22;;;;;;;28.97;17.70;;;9.50;99.90;;;;;;5011711;28;20202;-58
2021/11/21 10:31:02;;;;;;;31.53;18.27;;;9.30;99.90;;;;;;5012054;28;20218;-55
2021/11/21 10:33:32;;;;;;;30.93;17.20;;;9.20;99.90;;;;;;5011675;28;20720;-56
2021/11/21 10:36:03;;;;;;;31.23;18.90;;;9.20;99.90;;;;;;5011419;28;20227;-56
2021/11/21 10:38:39;;;;;;;31.83;17.87;;;9.10;99.90;;;;;;5011560;28;20341;-58
2021/11/21 10:41:11;;;;;;;31.23;18.23;;;9.00;99.90;;;;;;5009258;28;20217;-60
2021/11/21 10:43:47;;;;;;;31.87;17.33;;;9.00;99.90;;;;;;5011695;28;20206;-60
2021/11/21 10:46:35;;;;;;;32.50;17.50;;;8.90;99.90;;;;;;5011282;28;20619;-59
2021/11/21 10:49:23;;;;;;;32.10;17.43;;;8.90;99.90;;;;;;5011568;28;20210;-58
2021/11/21 10:52:03;;;;;;;34.23;16.77;;;8.90;99.90;;;;;;5011143;28;20208;-59
2021/11/21 10:54:33;;;;;;;25.33;10.70;;;8.90;99.90;;;;;;5011842;28;20289;-58
2021/11/21 10:57:02;;;;;;;25.27;11.93;;;8.70;97.00;;;;;;5011706;28;20268;-59
2021/11/21 10:59:47;;;;;;;22.17;12.63;;;8.80;82.90;;;;;;5011520;28;20300;-58
2021/11/21 11:02:16;;;;;;;26.93;13.70;;;8.70;79.00;;;;;;5011554;28;20826;-60
2021/11/21 11:05:00;;;;;;;25.80;14.17;;;8.70;90.90;;;;;;5011382;28;20226;-56
2021/11/21 11:07:30;;;;;;;26.47;15.67;;;8.80;98.90;;;;;;5011457;28;20215;-55
2021/11/21 11:09:58;;;;;;;26.40;14.53;;;8.90;99.90;;;;;;5011322;28;20203;-57
2021/11/21 11:12:26;;;;;;;27.20;14.50;;;9.00;99.90;;;;;;5010748;28;20701;-55
2021/11/21 11:14:56;;;;;;;22.33;12.47;;;9.10;99.90;;;;;;5010971;28;20609;-59
2021/11/21 11:17:24;;;;;;;20.27;11.63;;;9.10;99.90;;;;;;5011432;28;20213;-60
2021/11/21 11:19:55;;;;;;;18.90;10.50;;;9.00;94.70;;;;;;5011140;28;20215;-57
2021/11/21 11:22:22;;;;;;;20.47;10.90;;;9.00;72.00;;;;;;5011650;28;20222;-63
2021/11/21 11:24:54;;;;;;;25.00;10.77;;;8.90;62.80;;;;;;5010779;28;20230;-59
2021/11/21 11:27:28;;;;;;;21.23;9.50;;;9.00;64.80;;;;;;5011458;28;20430;-60
2021/11/21 11:29:56;;;;;;;15.17;8.40;;;9.00;58.70;;;;;;5011396;28;20202;-60
2021/11/21 11:32:31;;;;;;;16.03;8.57;;;9.00;50.60;;;;;;5011490;28;20210;-61
2021/11/21 11:34:59;;;;;;;17.40;9.77;;;9.00;46.70;;;;;;5011026;28;20704;-59
2021/11/21 11:37:44;;;;;;;18.80;8.10;;;9.00;49.90;;;;;;5011077;28;20210;-63
2021/11/21 11:40:49;;;;;;;15.57;8.47;;;9.00;51.30;;;;;;5011453;28;20206;-63
2021/11/21 11:46:32;;;;;;;14.83;7.83;;;9.10;43.10;;;;;;5084597;23;20234;-61
2021/11/21 11:49:03;;;;;;;16.80;7.23;;;9.00;33.90;;;;;;5010795;28;20225;-60
2021/11/21 11:51:52;;;;;;;12.23;6.77;;;9.00;9.80;;;;;;5011188;28;20211;-59
2021/11/21 11:54:26;;;;;;;21.03;10.30;;;9.00;3.90;;;;;;5011144;28;20270;-60
2021/11/21 11:56:56;;;;;;;20.73;10.40;;;9.10;4.00;;;;;;5011055;28;20713;-60
2021/11/21 11:59:34;;;;;;;16.33;6.07;;;9.10;3.70;;;;;;5011253;28;20591;-59
2021/11/21 12:02:06;;;;;;;16.20;6.70;;;9.10;3.60;;;;;;5011364;28;20261;-59
2021/11/21 12:04:54;;;;;;;14.53;6.60;;;9.00;1.00;;;;;;5013145;28;20235;-60
2021/11/21 12:07:24;;;;;;;15.20;6.63;;;9.00;1.00;;;;;;5014796;28;20206;-59
2021/11/21 12:10:09;;;;;;;11.37;6.93;;;9.00;1.00;;;;;;5014182;28;20229;-61
2021/11/21 12:13:02;;;;;;;13.67;6.67;;;9.00;1.00;;;;;;5014419;28;20260;-64
2021/11/21 12:15:42;;;;;;;14.87;6.53;;;9.10;1.00;;;;;;5011362;28;20284;-62
2021/11/21 12:18:10;;;;;;;12.07;4.90;;;9.20;1.00;;;;;;5014308;28;20203;-62
2021/11/21 12:20:49;;;;;;;14.70;5.47;;;9.20;1.00;;;;;;5014331;28;20258;-62
2021/11/21 12:23:54;;;;;;;10.90;5.47;;;9.20;1.00;;;;;;5014070;28;20712;-61
2021/11/21 12:26:23;;;;;;;13.20;5.00;;;9.20;1.00;;;;;;5014116;28;20616;-62
2021/11/21 12:28:57;;;;;;;14.40;5.03;;;9.20;1.00;;;;;;5013861;28;20219;-62
2021/11/21 12:31:37;;;;;;;11.77;3.63;;;9.20;1.00;;;;;;5011771;28;20831;-62
2021/11/21 12:34:43;;;;;;;13.20;4.23;;;9.20;1.00;;;;;;5013036;28;20241;-63
2021/11/21 12:37:18;;;;;;;12.23;4.07;;;9.30;1.00;;;;;;5008854;28;20203;-62
2021/11/21 12:39:49;;;;;;;9.83;3.63;;;9.30;1.00;;;;;;5014023;28;20628;-62
2021/11/21 12:42:18;;;;;;;9.83;3.87;;;9.30;1.00;;;;;;5014583;28;20217;-63
2021/11/21 12:44:46;;;;;;;11.50;4.20;;;9.30;1.00;;;;;;5013504;28;20250;-62
2021/11/21 12:47:15;;;;;;;15.17;3.73;;;9.30;1.00;;;;;;5014068;28;20218;-61
2021/11/21 12:49:43;;;;;;;12.83;3.50;;;9.30;1.00;;;;;;5013597;28;20233;-62
2021/11/21 12:52:13;;;;;;;15.40;3.63;;;9.20;1.00;;;;;;5013446;28;20210;-61
2021/11/21 12:54:40;;;;;;;10.40;2.80;;;9.20;1.00;;;;;;5013451;28;20604;-61